CheckWX is a tool to help pilots better visualize weather data.  It is not intended as a substitute for an official pre-flight weather briefing.

17:51:06 UTC

CYSM METAR
Fort Smith Airport
Fort Smith, Canada
Current

51 mins ago

CYSM 211700Z VRB02KT 2SM FU SKC 25/13 A3002 RMK FU2 SLP169 DENSITY ALT 1900FT
Observed
Jul-21 @ 17:00 UTC
Wind
  • Variable at 2 KTS
Visibility
2 SM
Flight Rules
IFR
Conditions
Smoke
Cloud Levels
  • Clear skies
Temperature
25°C / 77°F
Dewpoint
13°C / 55°F
Humidity
47%
Altimeter
30.02" Hg
Pressure
1016.62 hPa
Previous

2 hours ago

CYSM 211600Z 18005KT 3SM FU SKC 22/12 A3002 RMK SLP171 DENSITY ALT 1600FT
Observed
Jul-21 @ 16:00 UTC
Wind
  • 180° at 5 KTS
Visibility
3 SM
Flight Rules
MVFR
Conditions
Smoke
Cloud Levels
  • Clear skies
Temperature
22°C / 72°F
Dewpoint
12°C / 54°F
Humidity
53%
Altimeter
30.02" Hg
Pressure
1016.62 hPa
Previous

3 hours ago

CYSM 211500Z 18004KT 120V220 3SM FU SKC 20/11 A3002 RMK SLP170 DENSITY ALT 1300FT
Observed
Jul-21 @ 15:00 UTC
Wind
  • 180° at 4 KTS
Visibility
3 SM
Flight Rules
MVFR
Conditions
Smoke
Cloud Levels
  • Clear skies
Temperature
20°C / 68°F
Dewpoint
11°C / 52°F
Humidity
56%
Altimeter
30.02" Hg
Pressure
1016.62 hPa